createdAt,value
2022-11-12T08:20:19.290Z,99687.00
2022-11-12T08:25:40.294Z,99690.00
2022-11-12T08:31:10.373Z,99692.00
2022-11-12T08:36:31.667Z,99701.00
2022-11-12T08:41:52.897Z,99705.00
2022-11-12T08:47:14.119Z,99692.00
2022-11-12T08:52:35.568Z,99695.00
2022-11-12T08:58:02.050Z,99683.00
2022-11-12T09:03:25.631Z,99678.00
2022-11-12T09:08:46.740Z,99678.00
2022-11-12T09:14:08.251Z,99675.00
2022-11-12T09:19:29.592Z,99680.00
2022-11-12T09:24:50.649Z,99685.00
2022-11-12T09:30:12.305Z,99679.00
2022-11-12T09:35:33.500Z,99686.00
2022-11-12T09:41:05.824Z,99683.00
2022-11-12T09:46:42.067Z,99681.00
2022-11-12T09:52:27.024Z,99674.00
2022-11-12T09:57:48.279Z,99676.00
2022-11-12T10:03:35.939Z,99684.00
2022-11-12T10:09:16.444Z,99682.00
2022-11-12T10:14:43.872Z,99685.00
2022-11-12T10:20:38.569Z,99688.00
2022-11-12T10:26:09.576Z,99688.00
2022-11-12T10:31:30.999Z,99693.00
2022-11-12T10:37:02.614Z,99687.00
2022-11-12T10:42:24.266Z,99687.00
2022-11-12T10:47:47.891Z,99685.00
2022-11-12T10:53:12.109Z,99678.00
2022-11-12T10:58:33.356Z,99672.00
2022-11-12T11:03:58.743Z,99673.00
2022-11-12T11:09:21.737Z,99667.00
2022-11-12T11:14:44.717Z,99657.00
2022-11-12T11:20:49.251Z,99660.00
2022-11-12T11:26:41.320Z,99656.00
2022-11-12T11:32:08.856Z,99667.00
2022-11-12T11:37:32.592Z,99672.00
2022-11-12T11:43:02.823Z,99678.00
2022-11-12T11:48:32.914Z,99675.00
2022-11-12T11:54:00.436Z,99677.00
2022-11-12T11:59:25.395Z,99676.00
2022-11-12T12:04:51.879Z,99673.00
2022-11-12T12:11:01.778Z,99665.00
2022-11-12T12:16:36.733Z,99660.00
2022-11-12T12:22:01.495Z,99652.00
2022-11-12T12:27:27.669Z,99650.00
2022-11-12T12:33:11.763Z,99650.00
2022-11-12T12:38:53.757Z,99647.00
2022-11-12T12:44:15.263Z,99646.00
2022-11-12T12:49:39.062Z,99634.00
2022-11-12T12:55:00.896Z,99633.00
2022-11-12T13:00:39.133Z,99641.00
2022-11-12T13:06:25.061Z,99633.00
2022-11-12T13:12:05.740Z,99642.00
2022-11-12T13:17:47.800Z,99636.00
2022-11-12T13:23:11.843Z,99635.00
2022-11-12T13:28:32.958Z,99645.00
2022-11-12T13:33:54.803Z,99646.00
2022-11-12T13:39:19.601Z,99642.00
2022-11-12T13:44:40.973Z,99646.00
2022-11-12T13:50:02.617Z,99637.00
2022-11-12T13:55:24.282Z,99641.00
2022-11-12T14:00:53.461Z,99626.00
2022-11-12T14:06:20.522Z,99630.00
2022-11-12T14:12:10.466Z,99632.00
2022-11-12T14:17:51.034Z,99624.00
2022-11-12T14:23:24.497Z,99626.00
2022-11-12T14:28:46.309Z,99621.00
2022-11-12T14:34:33.256Z,99614.00
2022-11-12T14:39:54.753Z,99613.00
2022-11-12T14:45:23.295Z,99603.00
2022-11-12T14:50:50.723Z,99602.00
2022-11-12T14:56:22.759Z,99593.00
2022-11-12T15:07:56.187Z,99599.00
2022-11-12T15:13:21.094Z,99583.00
2022-11-12T15:18:42.383Z,99595.00
2022-11-12T15:24:11.975Z,99582.00
2022-11-12T15:29:34.100Z,99586.00
2022-11-12T15:34:56.844Z,99574.00
2022-11-12T15:40:21.212Z,99577.00
2022-11-12T15:45:42.999Z,99577.00
2022-11-12T15:51:04.559Z,99566.00
2022-11-12T15:56:25.751Z,99579.00
2022-11-12T16:01:47.210Z,99570.00
2022-11-12T16:07:09.852Z,99575.00
2022-11-12T16:12:31.343Z,99569.00
2022-11-12T16:17:54.875Z,99560.00
2022-11-12T16:23:16.625Z,99572.00
2022-11-12T16:28:37.953Z,99553.00
2022-11-12T16:33:59.153Z,99563.00
2022-11-12T16:39:20.159Z,99567.00
2022-11-12T16:44:41.165Z,99570.00
2022-11-12T16:50:02.419Z,99556.00
2022-11-12T16:55:23.864Z,99553.00
2022-11-12T17:00:46.708Z,99546.00
2022-11-12T17:06:08.023Z,99544.00
2022-11-12T17:11:29.152Z,99534.00
2022-11-12T17:16:50.263Z,99538.00
2022-11-12T17:22:11.471Z,99544.00
2022-11-12T17:27:32.716Z,99540.00
2022-11-12T17:32:56.318Z,99532.00
2022-11-12T17:38:17.605Z,99525.00
2022-11-12T17:43:39.168Z,99520.00
2022-11-12T17:49:00.696Z,99514.00
2022-11-12T17:54:22.245Z,99532.00
2022-11-12T17:59:43.261Z,99516.00
2022-11-12T18:05:04.613Z,99513.00
2022-11-12T18:10:25.909Z,99518.00
2022-11-12T18:15:47.187Z,99507.00
2022-11-12T18:21:08.500Z,99498.00
2022-11-12T18:26:29.775Z,99498.00
2022-11-12T18:31:50.878Z,99500.00
2022-11-12T18:37:12.362Z,99497.00
2022-11-12T18:42:33.806Z,99499.00
2022-11-12T18:47:55.102Z,99499.00
2022-11-12T18:53:16.305Z,99493.00
2022-11-12T18:58:37.417Z,99493.00
2022-11-12T19:03:58.881Z,99490.00
2022-11-12T19:09:19.951Z,99486.00
2022-11-12T19:14:41.327Z,99497.00
2022-11-12T19:20:02.788Z,99495.00
2022-11-12T19:25:24.188Z,99503.00
2022-11-12T19:30:45.621Z,99494.00
2022-11-12T19:36:08.918Z,99502.00
2022-11-12T19:41:30.182Z,99510.00
2022-11-12T19:46:51.589Z,99499.00
2022-11-12T19:52:12.673Z,99516.00
2022-11-12T19:57:34.248Z,99506.00
2022-11-12T20:02:55.629Z,99495.00
2022-11-12T20:08:16.753Z,99504.00
2022-11-12T20:13:38.329Z,99487.00
2022-11-12T20:19:01.579Z,99477.00
2022-11-12T20:24:22.892Z,99486.00
2022-11-12T20:29:44.378Z,99481.00
2022-11-12T20:35:10.999Z,99485.00
2022-11-12T20:40:36.549Z,99485.00
2022-11-12T20:45:58.013Z,99484.00
2022-11-12T20:51:25.314Z,99485.00
2022-11-12T20:56:47.558Z,99476.00
2022-11-12T21:02:10.585Z,99481.00
2022-11-12T21:07:31.890Z,99487.00
2022-11-12T21:12:53.565Z,99484.00
2022-11-12T21:18:14.962Z,99477.00
2022-11-12T21:23:38.825Z,99468.00
2022-11-12T21:29:03.119Z,99458.00
2022-11-12T21:34:25.336Z,99452.00
2022-11-12T21:39:49.345Z,99449.00
2022-11-12T21:45:12.082Z,99443.00
2022-11-12T21:50:33.216Z,99454.00
2022-11-12T21:55:54.286Z,99452.00
2022-11-12T22:01:22.433Z,99442.00
2022-11-12T22:06:43.533Z,99434.00
2022-11-12T22:12:04.723Z,99425.00
2022-11-12T22:17:26.126Z,99410.00
2022-11-12T22:22:47.512Z,99410.00
2022-11-12T22:28:08.613Z,99414.00
2022-11-12T22:33:29.715Z,99407.00
2022-11-12T22:38:53.591Z,99402.00
2022-11-12T22:44:15.072Z,99404.00
2022-11-12T22:49:36.213Z,99388.00
2022-11-12T22:54:57.621Z,99382.00
2022-11-12T23:00:28.040Z,99384.00
2022-11-12T23:05:55.905Z,99379.00
2022-11-12T23:11:20.445Z,99378.00
2022-11-12T23:16:41.334Z,99373.00
2022-11-12T23:22:07.568Z,99375.00
2022-11-12T23:27:29.993Z,99358.00
2022-11-12T23:32:51.183Z,99365.00
2022-11-12T23:38:12.343Z,99360.00
2022-11-12T23:43:33.775Z,99350.00
2022-11-12T23:48:54.876Z,99341.00
2022-11-12T23:54:16.258Z,99342.00
2022-11-12T23:59:37.760Z,99339.00
